Time;durP1;ratioP1;P1;durP2;ratioP2;P2;SDS_P1;SDS_P2;PMS_P1;PMS_P2;Temp;Humidity;BMP_temperature;BMP_pressure;BME280_temperature;BME280_humidity;BME280_pressure;Samples;Min_cycle;Max_cycle;Signal;HPM_P1;HPM_P2
2022/10/17 00:01:27;;;;;;;71.22;31.73;;;10.50;99.90;;;;;;5203984;28;20038;-75
2022/10/17 00:03:58;;;;;;;69.18;32.83;;;10.50;99.90;;;;;;5216851;28;20043;-74
2022/10/17 00:06:30;;;;;;;67.30;31.35;;;10.30;99.90;;;;;;5193369;28;20067;-73
2022/10/17 00:09:01;;;;;;;77.93;33.22;;;10.30;99.90;;;;;;5204083;28;20043;-73
2022/10/17 00:11:35;;;;;;;69.60;31.60;;;10.20;99.90;;;;;;5220456;28;20201;-76
2022/10/17 00:14:06;;;;;;;68.50;31.50;;;10.10;99.90;;;;;;5222589;28;20033;-75
2022/10/17 00:16:37;;;;;;;60.92;29.15;;;10.00;99.90;;;;;;5225462;28;20031;-74
2022/10/17 00:19:10;;;;;;;58.10;29.10;;;9.90;99.90;;;;;;5207326;28;20047;-73
2022/10/17 00:21:42;;;;;;;63.38;30.67;;;9.90;99.90;;;;;;5220400;28;20037;-73
2022/10/17 00:24:15;;;;;;;64.53;31.08;;;9.90;99.90;;;;;;5235611;28;20040;-73
2022/10/17 00:26:47;;;;;;;66.17;32.00;;;9.90;99.90;;;;;;5241116;28;20034;-73
2022/10/17 00:29:18;;;;;;;63.17;30.02;;;10.00;99.90;;;;;;5241677;28;20067;-73
2022/10/17 00:31:52;;;;;;;69.63;30.70;;;10.00;99.90;;;;;;5203860;28;20031;-74
2022/10/17 00:34:26;;;;;;;;;;;10.00;99.90;;;;;;5229640;28;20043;-73
2022/10/17 00:36:59;;;;;;;62.05;29.08;;;10.00;99.90;;;;;;5227573;28;20146;-75
2022/10/17 00:39:33;;;;;;;65.90;31.33;;;10.00;99.90;;;;;;5218734;28;20028;-75
2022/10/17 00:42:05;;;;;;;65.20;32.70;;;10.00;99.90;;;;;;5199771;28;20043;-74
2022/10/17 00:44:36;;;;;;;64.43;30.27;;;10.10;99.90;;;;;;5201743;28;20284;-75
2022/10/17 00:47:12;;;;;;;62.20;29.60;;;10.10;99.90;;;;;;5211712;28;20120;-75
2022/10/17 00:49:47;;;;;;;65.45;30.02;;;10.00;99.90;;;;;;5218830;28;20032;-75
2022/10/17 00:52:23;;;;;;;75.82;32.55;;;9.90;99.90;;;;;;5219903;28;20047;-75
2022/10/17 00:55:02;;;;;;;61.05;31.90;;;9.90;99.90;;;;;;5220118;28;20210;-76
2022/10/17 00:57:33;;;;;;;70.25;32.22;;;9.90;99.90;;;;;;5198818;28;20043;-76
2022/10/17 01:00:11;;;;;;;72.22;33.50;;;10.00;99.90;;;;;;5219563;28;20043;-75
2022/10/17 01:02:43;;;;;;;69.80;31.23;;;10.10;99.90;;;;;;5228439;28;20046;-75
2022/10/17 01:05:17;;;;;;;71.70;31.95;;;10.00;99.90;;;;;;5229574;28;20249;-75
2022/10/17 01:07:52;;;;;;;81.65;33.17;;;9.90;99.90;;;;;;5218632;28;20128;-75
2022/10/17 01:10:30;;;;;;;68.78;31.48;;;9.90;99.90;;;;;;5201892;28;20318;-73
2022/10/17 01:13:12;;;;;;;73.55;33.17;;;9.90;99.90;;;;;;5200691;28;20179;-75
2022/10/17 01:16:17;;;;;;;75.82;32.42;;;9.90;99.90;;;;;;5201325;28;20028;-75
2022/10/17 01:19:06;;;;;;;77.35;33.45;;;10.00;99.90;;;;;;5187242;28;20304;-74
2022/10/17 01:22:33;;;;;;;74.88;33.50;;;9.90;99.90;;;;;;5185117;28;20334;-74
2022/10/17 01:25:07;;;;;;;73.10;32.15;;;10.20;99.90;;;;;;5118706;28;20074;-75
2022/10/17 01:28:12;;;;;;;79.05;32.58;;;10.10;99.90;;;;;;5118740;28;20043;-75
2022/10/17 01:30:55;;;;;;;68.57;32.00;;;10.00;99.90;;;;;;5115042;28;20367;-75
2022/10/17 01:33:59;;;;;;;73.05;32.67;;;9.90;99.90;;;;;;5129983;28;20264;-75
2022/10/17 01:36:42;;;;;;;74.40;33.97;;;9.90;99.90;;;;;;5135802;28;20038;-75
2022/10/17 01:39:34;;;;;;;68.95;32.58;;;9.90;99.90;;;;;;5134913;28;20064;-75
2022/10/17 01:42:27;;;;;;;75.65;32.80;;;9.90;99.90;;;;;;5135838;28;20049;-75
2022/10/17 01:45:09;;;;;;;73.80;30.20;;;9.80;99.90;;;;;;5109973;28;20051;-74
2022/10/17 01:47:45;;;;;;;65.43;30.77;;;9.80;99.90;;;;;;5140265;28;20037;-75
2022/10/17 01:50:40;;;;;;;73.72;31.35;;;9.80;99.90;;;;;;5146764;28;20042;-74
2022/10/17 01:53:18;;;;;;;69.28;32.00;;;10.00;99.90;;;;;;5133736;28;20486;-74
2022/10/17 01:55:54;;;;;;;70.90;32.42;;;9.90;99.90;;;;;;5175093;28;20043;-74
2022/10/17 01:58:34;;;;;;;73.50;32.42;;;9.80;99.90;;;;;;5200459;28;20032;-74
2022/10/17 02:01:12;;;;;;;76.35;32.95;;;9.80;99.90;;;;;;5219170;28;20039;-74
2022/10/17 02:03:45;;;;;;;81.55;34.60;;;9.80;99.90;;;;;;5199948;28;20050;-75
2022/10/17 02:06:20;;;;;;;65.85;30.73;;;9.80;99.90;;;;;;5189573;28;20045;-74
2022/10/17 02:08:51;;;;;;;;;;;9.70;99.90;;;;;;5201487;28;20038;-74
2022/10/17 02:11:25;;;;;;;72.03;31.92;;;9.70;99.90;;;;;;5205652;28;19944;-74
2022/10/17 02:14:08;;;;;;;71.50;33.07;;;9.60;99.90;;;;;;5202896;28;20041;-74
2022/10/17 02:17:00;;;;;;;71.10;32.72;;;9.60;99.90;;;;;;5209192;28;20230;-74
2022/10/17 02:19:40;;;;;;;68.13;33.30;;;9.60;99.90;;;;;;5168325;28;20036;-75
2022/10/17 02:22:20;;;;;;;67.65;33.35;;;9.70;99.90;;;;;;5221626;28;20210;-75
2022/10/17 02:25:00;;;;;;;71.18;32.10;;;9.60;99.90;;;;;;5221466;28;20039;-75
2022/10/17 02:27:34;;;;;;;63.17;31.10;;;9.60;99.90;;;;;;5221357;28;20163;-74
2022/10/17 02:30:22;;;;;;;64.50;32.97;;;9.60;99.90;;;;;;5221962;28;20041;-74
2022/10/17 02:33:12;;;;;;;74.15;33.35;;;9.60;99.90;;;;;;5204274;28;20044;-75
2022/10/17 02:35:54;;;;;;;68.55;32.22;;;9.60;99.90;;;;;;5222127;28;20037;-74
2022/10/17 02:38:29;;;;;;;79.05;34.70;;;9.70;99.90;;;;;;5221087;28;20267;-74
2022/10/17 02:41:10;;;;;;;73.78;33.50;;;9.80;99.90;;;;;;5186577;28;20045;-74
2022/10/17 02:43:44;;;;;;;80.80;34.70;;;9.80;99.90;;;;;;5199918;28;20123;-74
2022/10/17 02:46:21;;;;;;;74.65;35.53;;;9.80;99.90;;;;;;5201169;28;20048;-74
2022/10/17 02:49:11;;;;;;;70.65;33.20;;;9.80;99.90;;;;;;5220837;28;20171;-74
2022/10/17 02:51:48;;;;;;;74.32;34.13;;;9.80;99.90;;;;;;5199973;28;20037;-74
2022/10/17 02:54:30;;;;;;;73.47;34.28;;;9.80;99.90;;;;;;5238753;28;20029;-74
2022/10/17 02:57:18;;;;;;;65.43;32.40;;;9.80;99.90;;;;;;5237711;28;20302;-74
2022/10/17 02:59:52;;;;;;;71.50;33.78;;;9.70;99.90;;;;;;5205391;28;20269;-74
2022/10/17 03:02:27;;;;;;;68.13;32.85;;;9.70;99.90;;;;;;5203578;28;20237;-74
2022/10/17 03:04:58;;;;;;;70.88;32.42;;;9.60;99.90;;;;;;5210516;28;20292;-74
2022/10/17 03:07:32;;;;;;;69.30;31.50;;;9.70;99.90;;;;;;5214930;28;20037;-75
2022/10/17 03:10:07;;;;;;;74.05;32.45;;;9.70;99.90;;;;;;5190163;28;20037;-74
2022/10/17 03:12:43;;;;;;;65.80;31.45;;;9.60;99.90;;;;;;5213678;28;20036;-75
2022/10/17 03:15:16;;;;;;;64.78;30.40;;;9.60;99.90;;;;;;5200863;28;20380;-75
2022/10/17 03:17:47;;;;;;;64.35;30.42;;;9.60;99.90;;;;;;5211514;28;20040;-74
2022/10/17 03:20:19;;;;;;;63.42;29.88;;;9.50;99.90;;;;;;5220868;28;20039;-74
2022/10/17 03:22:58;;;;;;;63.10;30.38;;;9.50;99.90;;;;;;5222731;28;20025;-74
2022/10/17 03:25:29;;;;;;;57.50;29.85;;;9.40;99.90;;;;;;5221212;28;20675;-74
2022/10/17 03:28:02;;;;;;;60.83;29.65;;;9.40;99.90;;;;;;5203878;28;20326;-74
2022/10/17 03:30:37;;;;;;;70.75;31.52;;;9.40;99.90;;;;;;5202166;28;20301;-74
2022/10/17 03:33:10;;;;;;;87.82;37.90;;;9.50;99.90;;;;;;5227761;28;20211;-75
2022/10/17 03:35:42;;;;;;;77.22;35.17;;;9.50;99.90;;;;;;5219740;28;20029;-75
2022/10/17 03:38:15;;;;;;;76.93;36.45;;;9.40;99.90;;;;;;5203057;28;20336;-75
2022/10/17 03:40:56;;;;;;;79.68;35.15;;;9.40;99.90;;;;;;5215693;28;20039;-75
2022/10/17 03:43:28;;;;;;;71.82;34.13;;;9.40;99.90;;;;;;5222150;28;20039;-75
2022/10/17 03:46:02;;;;;;;68.53;33.17;;;9.40;99.90;;;;;;5205317;28;20037;-75
2022/10/17 03:48:33;;;;;;;82.25;35.90;;;9.30;99.90;;;;;;5211790;28;20560;-75
2022/10/17 03:51:07;;;;;;;88.05;38.08;;;9.30;99.90;;;;;;5185512;28;20033;-75
2022/10/17 03:53:38;;;;;;;85.25;37.80;;;9.30;99.90;;;;;;5203973;28;20047;-75
2022/10/17 03:56:21;;;;;;;86.68;36.70;;;9.40;99.90;;;;;;5204029;28;20379;-74
2022/10/17 03:58:53;;;;;;;88.47;37.83;;;9.50;99.90;;;;;;5220213;28;20428;-74
2022/10/17 04:01:25;;;;;;;87.68;37.60;;;9.70;99.90;;;;;;5203591;28;20029;-75
2022/10/17 04:03:59;;;;;;;90.68;39.30;;;9.80;99.90;;;;;;5230068;28;20497;-74
2022/10/17 04:06:30;;;;;;;79.13;38.83;;;9.80;99.90;;;;;;5210540;28;20051;-74
2022/10/17 04:09:05;;;;;;;89.32;38.05;;;10.00;99.90;;;;;;5199046;28;20029;-74
2022/10/17 04:11:38;;;;;;;;;;;10.00;99.90;;;;;;5214256;28;20025;-74
2022/10/17 04:14:13;;;;;;;94.53;38.05;;;10.10;99.90;;;;;;5203789;28;19900;-73
2022/10/17 04:16:47;;;;;;;;;;;10.10;99.90;;;;;;5204514;28;20486;-74
2022/10/17 04:19:18;;;;;;;88.97;37.30;;;10.10;99.90;;;;;;5220882;28;19913;-75
2022/10/17 04:21:52;;;;;;;81.32;37.33;;;10.20;99.90;;;;;;5221459;28;20024;-74
2022/10/17 04:24:24;;;;;;;84.43;37.60;;;10.20;99.90;;;;;;5220520;28;20028;-74
2022/10/17 04:26:55;;;;;;;94.28;35.80;;;10.20;99.90;;;;;;5221650;28;20035;-75
2022/10/17 04:29:29;;;;;;;82.82;35.72;;;10.20;99.90;;;;;;5222299;28;20039;-74
2022/10/17 04:32:01;;;;;;;83.43;37.03;;;10.30;99.90;;;;;;5182086;28;20053;-74
2022/10/17 04:34:34;;;;;;;86.72;36.15;;;10.30;99.90;;;;;;5220215;28;20029;-74
2022/10/17 04:37:06;;;;;;;97.13;37.33;;;10.30;99.90;;;;;;5213529;28;20033;-74
2022/10/17 04:39:37;;;;;;;88.95;37.88;;;10.40;99.90;;;;;;5197142;28;20284;-75
2022/10/17 04:42:12;;;;;;;98.22;36.83;;;10.50;99.90;;;;;;5199636;28;20382;-74
2022/10/17 04:44:46;;;;;;;102.20;40.83;;;10.50;99.90;;;;;;5206033;28;20038;-74
2022/10/17 04:47:17;;;;;;;110.55;39.50;;;10.60;99.90;;;;;;5193333;28;20045;-74
2022/10/17 04:49:49;;;;;;;85.40;36.35;;;10.60;99.90;;;;;;5225102;28;20031;-74
2022/10/17 04:52:20;;;;;;;165.00;39.83;;;10.60;99.90;;;;;;5200150;28;20246;-74
2022/10/17 04:54:56;;;;;;;139.27;40.65;;;10.70;99.90;;;;;;5187441;28;20022;-74
2022/10/17 04:57:28;;;;;;;126.95;41.35;;;10.70;99.90;;;;;;5199329;28;20026;-74
2022/10/17 05:00:01;;;;;;;243.90;39.42;;;10.80;99.90;;;;;;5220221;28;20029;-75
2022/10/17 05:02:32;;;;;;;242.15;41.15;;;10.80;99.90;;;;;;5227398;28;20303;-76
2022/10/17 05:05:04;;;;;;;282.60;42.47;;;10.80;99.90;;;;;;5213223;28;20059;-75
2022/10/17 05:07:42;;;;;;;365.42;45.25;;;10.80;99.90;;;;;;5204864;28;20047;-74
2022/10/17 05:10:13;;;;;;;301.00;43.05;;;10.80;99.90;;;;;;5218700;28;20040;-74
2022/10/17 05:12:47;;;;;;;409.05;47.00;;;10.80;99.90;;;;;;5219707;28;20029;-74
2022/10/17 05:15:21;;;;;;;195.75;40.33;;;10.80;99.90;;;;;;5184527;28;20374;-73
2022/10/17 05:17:55;;;;;;;202.93;40.33;;;10.80;99.90;;;;;;5202098;28;20033;-74
2022/10/17 05:20:29;;;;;;;441.52;45.60;;;10.80;99.90;;;;;;5227685;28;20021;-73
2022/10/17 05:23:01;;;;;;;312.13;43.70;;;10.80;99.90;;;;;;5219943;28;20036;-74
2022/10/17 05:25:32;;;;;;;311.95;41.53;;;10.80;99.90;;;;;;5240536;28;20029;-75
2022/10/17 05:28:04;;;;;;;234.02;41.42;;;10.80;99.90;;;;;;5219635;28;20033;-75
2022/10/17 05:30:35;;;;;;;237.27;42.78;;;10.90;99.90;;;;;;5202557;28;20353;-73
2022/10/17 05:33:08;;;;;;;271.02;38.92;;;10.90;99.90;;;;;;5224667;28;20021;-74
2022/10/17 05:35:45;;;;;;;264.30;38.83;;;10.90;99.90;;;;;;5208468;28;20029;-75
2022/10/17 05:38:16;;;;;;;286.98;40.40;;;10.90;99.90;;;;;;5218289;28;20040;-76
2022/10/17 05:40:50;;;;;;;175.35;38.05;;;11.00;99.90;;;;;;5200631;28;20060;-75
2022/10/17 05:43:21;;;;;;;213.52;40.70;;;11.00;99.90;;;;;;5221793;28;20116;-75
2022/10/17 05:45:53;;;;;;;108.43;36.05;;;11.00;99.90;;;;;;5208975;28;20178;-73
2022/10/17 05:48:26;;;;;;;93.13;36.85;;;11.00;99.90;;;;;;5232222;28;20025;-73
2022/10/17 05:51:02;;;;;;;103.45;37.42;;;11.10;99.90;;;;;;5228593;28;20043;-75
2022/10/17 05:53:38;;;;;;;111.07;38.80;;;11.20;99.90;;;;;;5223161;28;20047;-73
2022/10/17 05:56:19;;;;;;;99.30;36.20;;;11.20;99.90;;;;;;5223329;28;20021;-73
2022/10/17 05:58:50;;;;;;;96.63;34.72;;;11.20;99.90;;;;;;5209054;28;20036;-73
2022/10/17 06:01:24;;;;;;;93.53;36.58;;;11.20;99.90;;;;;;5201420;28;20327;-74
2022/10/17 06:03:58;;;;;;;97.78;35.35;;;11.20;99.90;;;;;;5201153;28;20258;-73
2022/10/17 06:06:29;;;;;;;95.88;37.53;;;11.20;99.90;;;;;;5192177;28;20319;-74
2022/10/17 06:09:00;;;;;;;95.68;35.30;;;11.20;99.90;;;;;;5200946;28;20039;-75
2022/10/17 06:11:31;;;;;;;149.07;37.60;;;11.20;99.90;;;;;;5219124;28;20267;-75
2022/10/17 06:14:03;;;;;;;99.28;38.42;;;11.30;99.90;;;;;;5218970;28;20020;-75
2022/10/17 06:16:34;;;;;;;91.93;36.90;;;11.30;99.90;;;;;;5202201;28;20040;-75
2022/10/17 06:19:05;;;;;;;89.65;36.25;;;11.40;99.90;;;;;;5218106;28;20033;-75
2022/10/17 06:21:39;;;;;;;84.72;35.40;;;11.50;99.90;;;;;;5227100;28;20017;-75
2022/10/17 06:24:13;;;;;;;97.82;36.60;;;11.50;99.90;;;;;;5229731;28;20031;-75
2022/10/17 06:26:46;;;;;;;85.00;36.65;;;11.60;99.90;;;;;;5204302;28;20033;-75
2022/10/17 06:29:17;;;;;;;83.28;36.53;;;11.70;99.90;;;;;;5188808;28;20043;-75
2022/10/17 06:31:49;;;;;;;87.15;33.35;;;11.80;99.90;;;;;;5220563;28;20055;-75
2022/10/17 06:34:20;;;;;;;95.07;37.20;;;12.00;99.90;;;;;;5187072;28;20040;-75
2022/10/17 06:36:54;;;;;;;91.97;37.92;;;12.10;99.90;;;;;;5228609;28;20261;-75
2022/10/17 06:39:32;;;;;;;91.47;36.17;;;12.10;99.90;;;;;;5217809;28;20027;-75
2022/10/17 06:42:03;;;;;;;84.45;37.10;;;12.20;99.90;;;;;;5222854;28;20252;-75
2022/10/17 06:44:35;;;;;;;91.22;36.08;;;12.10;99.90;;;;;;5206099;28;20021;-75
2022/10/17 06:47:06;;;;;;;92.25;38.20;;;12.10;99.90;;;;;;5227400;28;20029;-75
2022/10/17 06:49:37;;;;;;;81.55;35.97;;;12.20;99.90;;;;;;5207877;28;20059;-75
2022/10/17 06:52:15;;;;;;;81.70;38.45;;;12.20;99.90;;;;;;5204273;28;20451;-75
2022/10/17 06:54:47;;;;;;;91.53;39.78;;;12.30;99.90;;;;;;5206799;28;20256;-75
2022/10/17 06:57:18;;;;;;;85.97;39.58;;;12.40;99.90;;;;;;5186839;28;20043;-75
2022/10/17 06:59:49;;;;;;;86.03;38.67;;;12.50;99.90;;;;;;5205005;28;20440;-75
2022/10/17 07:02:22;;;;;;;82.85;36.92;;;12.70;99.90;;;;;;5196881;28;20545;-75
2022/10/17 07:04:56;;;;;;;83.60;38.63;;;12.80;99.90;;;;;;5178646;28;20132;-75
2022/10/17 07:07:31;;;;;;;71.38;36.75;;;12.90;99.90;;;;;;5228481;28;20039;-75
2022/10/17 07:10:07;;;;;;;62.97;34.08;;;13.10;99.90;;;;;;5201588;28;20375;-75
2022/10/17 07:12:43;;;;;;;55.67;29.83;;;12.90;99.90;;;;;;5194922;28;20626;-74
2022/10/17 07:15:14;;;;;;;59.42;30.08;;;13.10;99.90;;;;;;5214656;28;20029;-75
2022/10/17 07:17:52;;;;;;;49.65;26.60;;;13.10;99.90;;;;;;5195026;28;20036;-75
2022/10/17 07:20:28;;;;;;;51.95;27.58;;;13.30;99.90;;;;;;5229074;28;20029;-75
2022/10/17 07:22:59;;;;;;;45.55;27.48;;;13.50;99.90;;;;;;5223407;28;20055;-75
2022/10/17 07:25:30;;;;;;;49.30;27.75;;;13.70;99.90;;;;;;5231818;28;20042;-75
2022/10/17 07:28:01;;;;;;;45.38;25.02;;;13.70;99.90;;;;;;5220606;28;20456;-75
2022/10/17 07:30:33;;;;;;;42.13;25.95;;;13.90;99.90;;;;;;5204103;28;20298;-75
2022/10/17 07:33:04;;;;;;;43.33;25.40;;;14.10;99.90;;;;;;5213001;28;20356;-75
2022/10/17 07:35:44;;;;;;;43.17;26.27;;;14.50;99.90;;;;;;5221511;28;20029;-74
2022/10/17 07:38:15;;;;;;;38.92;22.92;;;14.60;99.90;;;;;;5221518;28;20039;-75
2022/10/17 07:40:56;;;;;;;39.30;23.48;;;14.90;99.90;;;;;;5198047;28;20032;-75
2022/10/17 07:43:28;;;;;;;38.70;23.08;;;15.10;99.90;;;;;;5216609;28;20532;-75
2022/10/17 07:46:01;;;;;;;32.88;20.88;;;15.30;99.90;;;;;;5198967;28;20044;-75
2022/10/17 07:48:34;;;;;;;37.25;22.45;;;15.10;99.90;;;;;;5207457;28;20120;-75
2022/10/17 07:51:07;;;;;;;32.78;22.60;;;15.40;99.90;;;;;;5198407;28;20028;-75
2022/10/17 07:53:39;;;;;;;34.05;21.55;;;15.30;99.90;;;;;;5203421;28;20035;-75
2022/10/17 07:56:10;;;;;;;34.13;21.42;;;15.40;99.90;;;;;;5220214;28;20328;-75
2022/10/17 07:58:44;;;;;;;41.30;22.52;;;15.50;99.90;;;;;;5220884;28;20527;-75
2022/10/17 08:01:16;;;;;;;32.43;20.97;;;15.80;99.90;;;;;;5210486;28;20029;-75
2022/10/17 08:03:47;;;;;;;33.45;22.20;;;16.20;99.90;;;;;;5205090;28;20024;-75
2022/10/17 08:06:18;;;;;;;36.92;21.73;;;16.30;99.90;;;;;;5189696;28;20060;-75
2022/10/17 08:08:50;;;;;;;37.40;21.88;;;16.50;99.90;;;;;;5218896;28;20096;-75
2022/10/17 08:11:24;;;;;;;31.52;20.67;;;16.50;99.90;;;;;;5220325;28;20027;-75
2022/10/17 08:13:55;;;;;;;31.88;21.10;;;16.70;99.90;;;;;;5241470;28;20294;-75
2022/10/17 08:16:26;;;;;;;36.60;20.65;;;16.80;99.90;;;;;;5201650;28;20244;-75
2022/10/17 08:19:03;;;;;;;33.92;22.30;;;17.10;99.90;;;;;;5200394;28;20037;-75
2022/10/17 08:21:34;;;;;;;30.15;20.73;;;17.20;99.90;;;;;;5194647;28;20029;-75
2022/10/17 08:24:08;;;;;;;29.20;19.85;;;17.40;99.90;;;;;;5201823;28;20066;-75
2022/10/17 08:26:41;;;;;;;31.38;19.30;;;17.50;99.90;;;;;;5221029;28;20699;-76
2022/10/17 08:29:13;;;;;;;33.90;21.42;;;17.50;99.90;;;;;;5213042;28;20524;-75
2022/10/17 08:31:45;;;;;;;29.00;20.23;;;17.70;99.90;;;;;;5219635;28;20025;-74
2022/10/17 08:34:18;;;;;;;31.58;19.33;;;17.60;99.90;;;;;;5221116;28;20036;-76
2022/10/17 08:36:50;;;;;;;31.27;20.75;;;17.70;99.90;;;;;;5205885;28;20031;-76
2022/10/17 08:39:26;;;;;;;32.22;20.63;;;18.10;99.90;;;;;;5223879;28;20031;-76
2022/10/17 08:42:00;;;;;;;30.02;20.35;;;18.10;99.90;;;;;;5223638;28;20032;-76
2022/10/17 08:44:43;;;;;;;29.35;19.52;;;18.60;99.90;;;;;;5221553;28;20031;-75
2022/10/17 08:47:30;;;;;;;32.10;20.17;;;18.80;99.90;;;;;;5203903;28;20035;-76
2022/10/17 08:50:05;;;;;;;31.98;20.02;;;18.30;99.90;;;;;;5207087;28;20027;-76
2022/10/17 08:53:06;;;;;;;34.17;20.83;;;18.60;99.90;;;;;;5202804;28;20025;-75
2022/10/17 08:55:45;;;;;;;29.55;19.73;;;18.80;99.90;;;;;;5204567;28;20042;-75
2022/10/17 08:58:18;;;;;;;32.78;18.80;;;18.60;99.90;;;;;;5207765;28;20032;-75
2022/10/17 09:01:02;;;;;;;34.53;20.25;;;18.80;99.90;;;;;;5221139;28;20028;-75
2022/10/17 09:03:42;;;;;;;30.15;19.95;;;18.60;99.90;;;;;;5217101;28;20234;-75
2022/10/17 09:06:24;;;;;;;29.00;18.17;;;18.70;99.90;;;;;;5202835;28;20363;-75
2022/10/17 09:09:24;;;;;;;34.92;20.02;;;18.80;99.90;;;;;;5202912;28;20032;-75
2022/10/17 09:12:07;;;;;;;30.20;19.73;;;18.80;99.90;;;;;;5202465;28;20064;-75
2022/10/17 09:15:05;;;;;;;29.77;19.73;;;19.10;99.90;;;;;;5199728;28;20035;-74
2022/10/17 09:17:55;;;;;;;30.05;20.88;;;18.60;99.90;;;;;;5201202;28;20029;-75
2022/10/17 09:20:38;;;;;;;29.75;19.35;;;19.10;99.90;;;;;;5236987;28;20030;-75
2022/10/17 09:23:16;;;;;;;29.40;18.85;;;19.30;99.90;;;;;;5195299;28;20250;-76
2022/10/17 09:25:53;;;;;;;27.73;19.50;;;19.70;99.90;;;;;;5198338;28;20033;-75
2022/10/17 09:28:37;;;;;;;28.38;19.15;;;19.90;99.90;;;;;;5215716;28;20321;-75
2022/10/17 09:31:37;;;;;;;28.45;19.67;;;20.40;99.90;;;;;;5205538;28;20036;-74
2022/10/17 09:34:11;;;;;;;36.95;18.95;;;20.20;99.90;;;;;;5202805;28;20037;-76
2022/10/17 09:36:44;;;;;;;28.83;18.75;;;19.80;99.90;;;;;;5206221;28;20029;-76
2022/10/17 09:39:19;;;;;;;27.15;19.42;;;20.00;99.90;;;;;;5211927;28;20021;-76
2022/10/17 09:42:01;;;;;;;29.88;19.00;;;19.90;99.90;;;;;;5203726;28;20107;-76
2022/10/17 09:44:37;;;;;;;28.63;18.08;;;20.50;99.90;;;;;;5221634;28;20047;-76
2022/10/17 09:47:41;;;;;;;27.75;18.55;;;20.90;99.90;;;;;;5219780;28;20051;-76
2022/10/17 09:50:31;;;;;;;28.52;18.33;;;21.00;99.90;;;;;;5180319;28;20041;-76
2022/10/17 09:53:17;;;;;;;28.08;18.38;;;21.40;99.90;;;;;;5161099;28;20034;-75
2022/10/17 09:56:00;;;;;;;25.10;17.92;;;21.90;99.90;;;;;;5176632;28;20033;-76
2022/10/17 09:58:46;;;;;;;25.90;19.35;;;22.10;99.90;;;;;;5178906;28;20034;-76
2022/10/17 10:01:27;;;;;;;26.83;17.38;;;22.70;99.90;;;;;;5160162;28;20034;-76
2022/10/17 10:04:08;;;;;;;26.50;16.75;;;23.10;99.90;;;;;;5161264;28;20033;-76
2022/10/17 10:06:59;;;;;;;26.08;16.70;;;23.70;99.90;;;;;;5181772;28;20671;-76
2022/10/17 10:09:32;;;;;;;25.52;17.98;;;23.20;99.90;;;;;;5164640;28;20042;-77
2022/10/17 10:12:15;;;;;;;25.85;17.60;;;23.80;99.90;;;;;;5163117;28;20038;-75
2022/10/17 10:14:46;;;;;;;24.67;16.58;;;24.50;99.90;;;;;;5162701;28;20080;-74
2022/10/17 10:17:33;;;;;;;22.75;16.60;;;25.00;99.90;;;;;;5179316;28;20088;-75
2022/10/17 10:20:25;;;;;;;28.10;17.52;;;25.40;99.90;;;;;;5178359;28;20038;-75
2022/10/17 10:23:20;;;;;;;24.98;16.75;;;26.00;99.90;;;;;;5176050;28;20349;-75
2022/10/17 10:26:01;;;;;;;24.83;15.80;;;26.70;99.90;;;;;;5186529;28;20041;-76
2022/10/17 10:28:36;;;;;;;20.75;14.73;;;27.20;99.90;;;;;;5220627;28;20047;-76
2022/10/17 10:31:14;;;;;;;23.05;16.05;;;27.30;99.90;;;;;;5223241;28;20350;-76
2022/10/17 10:33:45;;;;;;;21.52;15.50;;;27.30;99.90;;;;;;5229959;28;20260;-76
2022/10/17 10:36:21;;;;;;;20.73;14.50;;;27.30;99.90;;;;;;5221854;28;20059;-76
2022/10/17 10:38:55;;;;;;;21.42;14.95;;;27.40;99.90;;;;;;5203839;28;20482;-76
2022/10/17 10:41:29;;;;;;;19.15;14.45;;;27.10;99.90;;;;;;5221386;28;20017;-76
2022/10/17 10:44:02;;;;;;;18.08;13.60;;;26.60;99.90;;;;;;5202716;28;20032;-75
2022/10/17 10:46:34;;;;;;;19.23;14.30;;;27.40;99.90;;;;;;5236711;28;20284;-76
2022/10/17 10:49:29;;;;;;;17.73;13.27;;;28.50;99.90;;;;;;5202064;28;20032;-76
2022/10/17 10:52:05;;;;;;;19.83;12.95;;;29.00;99.90;;;;;;5215844;28;20285;-76
2022/10/17 10:54:45;;;;;;;17.55;13.48;;;29.10;99.90;;;;;;5215108;28;20035;-77
2022/10/17 10:57:22;;;;;;;19.60;13.85;;;27.60;99.90;;;;;;5204278;28;20346;-77
2022/10/17 11:00:14;;;;;;;18.20;13.52;;;28.70;99.90;;;;;;5222184;28;20040;-76
2022/10/17 11:03:11;;;;;;;17.20;13.88;;;29.40;99.90;;;;;;5223484;28;20033;-76
2022/10/17 11:05:49;;;;;;;19.23;14.55;;;27.90;99.90;;;;;;5223553;28;20067;-77
2022/10/17 11:08:34;;;;;;;19.23;13.43;;;26.10;99.90;;;;;;5200583;28;20038;-76
2022/10/17 11:11:56;;;;;;;17.65;13.05;;;26.80;99.90;;;;;;5184945;28;20013;-76
2022/10/17 11:14:42;;;;;;;16.80;12.68;;;27.30;99.90;;;;;;5178186;28;20026;-76
2022/10/17 11:17:31;;;;;;;22.08;13.38;;;27.30;99.90;;;;;;5176047;28;20034;-75
2022/10/17 11:20:08;;;;;;;22.25;13.32;;;27.40;99.90;;;;;;5196058;28;20601;-76
2022/10/17 11:22:46;;;;;;;18.05;13.48;;;27.70;99.90;;;;;;5231171;28;20025;-75
2022/10/17 11:25:34;;;;;;;17.98;13.10;;;27.90;99.90;;;;;;5221977;28;20032;-75
2022/10/17 11:28:20;;;;;;;21.67;13.13;;;27.40;99.90;;;;;;5234077;28;20066;-76
2022/10/17 11:31:03;;;;;;;20.05;13.18;;;27.40;99.90;;;;;;5242378;28;20022;-76
2022/10/17 11:33:56;;;;;;;16.35;12.25;;;27.70;99.90;;;;;;5227359;28;20050;-76
2022/10/17 11:36:35;;;;;;;19.48;12.75;;;29.00;99.90;;;;;;5221864;28;20501;-76
2022/10/17 11:39:22;;;;;;;14.68;12.23;;;28.90;99.90;;;;;;5221211;28;20021;-75
2022/10/17 11:42:08;;;;;;;19.10;12.85;;;29.50;99.90;;;;;;5202092;28;20042;-77
2022/10/17 11:44:40;;;;;;;18.63;12.82;;;29.70;99.90;;;;;;5181867;28;20036;-75
2022/10/17 11:47:53;;;;;;;14.88;11.25;;;29.80;99.90;;;;;;5211429;28;20045;-75
2022/10/17 11:50:45;;;;;;;17.48;12.35;;;29.70;99.90;;;;;;5219862;28;20020;-76
2022/10/17 11:53:25;;;;;;;18.20;12.27;;;28.70;99.90;;;;;;5220026;28;20037;-76
2022/10/17 11:56:00;;;;;;;21.60;11.93;;;28.50;99.90;;;;;;5237755;28;20036;-76
2022/10/17 11:58:48;;;;;;;14.40;11.52;;;28.70;99.90;;;;;;5206303;28;20044;-76
2022/10/17 12:01:38;;;;;;;16.02;11.13;;;28.80;99.90;;;;;;5217927;28;20017;-77
2022/10/17 12:04:21;;;;;;;16.67;11.57;;;28.80;99.90;;;;;;5203098;28;20035;-74
2022/10/17 12:07:09;;;;;;;14.07;11.50;;;29.30;99.90;;;;;;5204355;28;20033;-77
2022/10/17 12:10:05;;;;;;;19.45;10.75;;;28.70;99.90;;;;;;5192326;28;20364;-76
2022/10/17 12:12:39;;;;;;;15.57;10.23;;;26.90;99.90;;;;;;5206911;28;20302;-75
2022/10/17 12:15:19;;;;;;;18.75;10.30;;;27.00;99.90;;;;;;5185587;28;20375;-77
2022/10/17 12:18:04;;;;;;;14.75;10.68;;;27.70;99.90;;;;;;5211283;28;20047;-77
2022/10/17 12:20:40;;;;;;;15.65;11.00;;;27.00;99.90;;;;;;5222090;28;20032;-76
2022/10/17 12:23:11;;;;;;;15.43;10.68;;;26.80;99.90;;;;;;5221338;28;20028;-75
2022/10/17 12:25:50;;;;;;;14.30;9.85;;;26.80;99.90;;;;;;5214260;28;20031;-77
2022/10/17 12:28:29;;;;;;;13.90;10.05;;;26.80;99.90;;;;;;5191424;28;20372;-77
2022/10/17 12:31:16;;;;;;;12.90;10.55;;;27.20;99.90;;;;;;5203462;28;20450;-77
2022/10/17 12:33:54;;;;;;;14.98;11.25;;;28.10;99.90;;;;;;5196292;28;20059;-76
2022/10/17 12:36:25;;;;;;;13.93;10.25;;;27.30;99.90;;;;;;5204085;28;20056;-76
2022/10/17 12:39:02;;;;;;;14.45;9.70;;;27.20;99.90;;;;;;5239631;28;20032;-77
2022/10/17 12:41:43;;;;;;;14.65;10.80;;;26.80;99.90;;;;;;5241084;28;20034;-76
2022/10/17 12:44:20;;;;;;;13.15;8.98;;;27.20;99.90;;;;;;5202174;28;20036;-76
2022/10/17 12:47:00;;;;;;;13.68;9.13;;;27.20;99.90;;;;;;5216194;28;20265;-77
2022/10/17 12:49:34;;;;;;;15.32;10.82;;;27.60;99.90;;;;;;5218129;28;20023;-76
2022/10/17 12:52:06;;;;;;;;;;;27.90;99.90;;;;;;5220436;28;20027;-76
2022/10/17 12:54:43;;;;;;;14.27;9.15;;;27.90;99.90;;;;;;5201646;28;20355;-76
2022/10/17 12:57:30;;;;;;;12.80;10.05;;;27.50;99.90;;;;;;5213037;28;20048;-77
2022/10/17 13:00:30;;;;;;;14.18;10.00;;;27.10;99.90;;;;;;5221216;28;20017;-76
2022/10/17 13:03:26;;;;;;;12.55;9.57;;;27.70;99.90;;;;;;5209686;28;20367;-77
2022/10/17 13:06:06;;;;;;;15.30;9.57;;;27.80;99.90;;;;;;5188673;28;20048;-76
2022/10/17 13:08:42;;;;;;;13.27;9.52;;;26.90;99.90;;;;;;5216153;28;20041;-77
2022/10/17 13:11:14;;;;;;;17.25;10.15;;;26.30;99.90;;;;;;5211186;28;20017;-76
2022/10/17 13:13:51;;;;;;;12.43;10.23;;;26.70;99.90;;;;;;5212852;28;20037;-76
2022/10/17 13:16:40;;;;;;;14.38;9.38;;;26.50;99.90;;;;;;5214160;28;20031;-75
2022/10/17 13:19:14;;;;;;;13.00;9.13;;;26.70;99.90;;;;;;5216901;28;20031;-77
2022/10/17 13:21:55;;;;;;;14.27;9.90;;;26.70;99.90;;;;;;5214309;28;20024;-77
2022/10/17 13:24:35;;;;;;;11.98;10.05;;;26.20;99.90;;;;;;5199238;28;20029;-75